Terminal Aerodrome Forecast
Issued by NWS Quad Cities IA IL

Home | Current Version | Previous Version | Text Only | Print | Product List | Glossary On
Versions: 1 2 3 4 5 6 7 8 9 10 11 12 13 14 15 16 17 18 19 20 21 22 23 24 25
000
FTUS43 KDVN 192323
TAFDBQ
TAF
KDBQ 192323Z 2000/2024 35006KT 1/4SM FG VCSH VV002
     FM200800 22005KT 1SM -SHRA BR OVC002
     FM201700 25008KT 1SM BR OVC004
     FM201900 30009KT 2SM BR OVC007=

USA.gov is the U.S. government's official web portal to all federal, state and local government web resources and services.